Main page
METAR-TAF:

METAR-TAF

Airports :

Inverness Airport

Inverness, Scotland

latitude: 57-32N, longitude: 004-03W, elevation: 9 m

Current weather observation

The report was made 19 minutes ago, at 23:20 UTC
Wind 10 kt from the Southwest
Temperature 8°C
Humidity 81%
Pressure 1007 hPa
Visibility 10 km or more

METAR: EGPE 252320Z AUTO 23010KT 9999 BKN040/// 08/05 Q1007

Time: 00:39 (23:39 UTC)

Forecast

The report was made 45 minutes ago, at 22:54 UTC
Forecast valid from 26 at 00 UTC to 26 at 09 UTC
Wind 9 kt from the Southwest
Visibility 10 km or more
Few clouds at a height of 4000 ft
Probability 30% :
Temporary
from 26 at 00 UTC to 26 at 09 UTC
Wind 15 kt from the West/Southwest with gusts up to 26 kt
Visibility: 6000 m
rain showers

TAF: EGPE 252254Z 2600/2609 23009KT 9999 FEW040 PROB30 TEMPO 2600/2609 24015G26KT 6000 SHRA

Weather observations and forecasts of more than 4000 airports (METAR and TAF reports).

The available stations are represented by yellow and red dots on the map.

Hover mouse over dot to see the name of the station.

Then click to see weather observations and forecasts.

To change the map : click on the green buttons with a black cross to zoom in, on the green button with a dash to zoom out, or on the green arrows for adjacent maps.


METAR-TAF: